sensor_id;sensor_type;location;lat;lon;timestamp;P1;durP1;ratioP1;P2;durP2;ratioP2
13185;SDS011;6658;53.080;7.428;2023-02-23T00:01:37;26.00;;;18.77;;
13185;SDS011;6658;53.080;7.428;2023-02-23T00:04:04;26.43;;;17.47;;
13185;SDS011;6658;53.080;7.428;2023-02-23T00:06:30;25.97;;;17.00;;
13185;SDS011;6658;53.080;7.428;2023-02-23T00:08:57;25.43;;;17.60;;
13185;SDS011;6658;53.080;7.428;2023-02-23T00:11:25;24.90;;;17.50;;
13185;SDS011;6658;53.080;7.428;2023-02-23T00:13:52;28.20;;;18.43;;
13185;SDS011;6658;53.080;7.428;2023-02-23T00:16:22;26.93;;;18.00;;
13185;SDS011;6658;53.080;7.428;2023-02-23T00:18:54;24.93;;;18.77;;
13185;SDS011;6658;53.080;7.428;2023-02-23T00:21:28;25.50;;;17.90;;
13185;SDS011;6658;53.080;7.428;2023-02-23T00:24:12;23.67;;;17.33;;
13185;SDS011;6658;53.080;7.428;2023-02-23T00:26:43;24.67;;;19.53;;
13185;SDS011;6658;53.080;7.428;2023-02-23T00:29:12;26.43;;;18.00;;
13185;SDS011;6658;53.080;7.428;2023-02-23T00:31:43;26.33;;;17.90;;
13185;SDS011;6658;53.080;7.428;2023-02-23T00:34:10;24.50;;;17.93;;
13185;SDS011;6658;53.080;7.428;2023-02-23T00:36:37;26.27;;;18.20;;
13185;SDS011;6658;53.080;7.428;2023-02-23T00:39:05;27.00;;;18.20;;
13185;SDS011;6658;53.080;7.428;2023-02-23T00:41:49;28.00;;;18.27;;
13185;SDS011;6658;53.080;7.428;2023-02-23T00:44:16;27.93;;;19.17;;
13185;SDS011;6658;53.080;7.428;2023-02-23T00:46:43;25.63;;;18.57;;
13185;SDS011;6658;53.080;7.428;2023-02-23T00:49:10;26.63;;;19.03;;
13185;SDS011;6658;53.080;7.428;2023-02-23T00:51:37;28.63;;;19.87;;
13185;SDS011;6658;53.080;7.428;2023-02-23T00:54:03;27.40;;;18.33;;
13185;SDS011;6658;53.080;7.428;2023-02-23T00:56:29;29.03;;;19.20;;
13185;SDS011;6658;53.080;7.428;2023-02-23T00:58:55;26.80;;;20.27;;
13185;SDS011;6658;53.080;7.428;2023-02-23T01:01:21;27.57;;;19.50;;
13185;SDS011;6658;53.080;7.428;2023-02-23T01:03:48;26.80;;;19.97;;
13185;SDS011;6658;53.080;7.428;2023-02-23T01:06:15;30.27;;;18.47;;
13185;SDS011;6658;53.080;7.428;2023-02-23T01:08:42;27.03;;;18.93;;
13185;SDS011;6658;53.080;7.428;2023-02-23T01:11:13;26.90;;;20.63;;
13185;SDS011;6658;53.080;7.428;2023-02-23T01:13:42;27.97;;;20.77;;
13185;SDS011;6658;53.080;7.428;2023-02-23T01:16:12;27.70;;;20.40;;
13185;SDS011;6658;53.080;7.428;2023-02-23T01:18:40;26.23;;;19.73;;
13185;SDS011;6658;53.080;7.428;2023-02-23T01:21:15;29.77;;;20.33;;
13185;SDS011;6658;53.080;7.428;2023-02-23T01:24:02;30.17;;;21.03;;
13185;SDS011;6658;53.080;7.428;2023-02-23T01:26:30;30.30;;;20.97;;
13185;SDS011;6658;53.080;7.428;2023-02-23T01:29:07;29.33;;;20.67;;
13185;SDS011;6658;53.080;7.428;2023-02-23T01:31:35;29.50;;;20.53;;
13185;SDS011;6658;53.080;7.428;2023-02-23T01:34:03;30.47;;;22.13;;
13185;SDS011;6658;53.080;7.428;2023-02-23T01:36:32;32.40;;;22.40;;
13185;SDS011;6658;53.080;7.428;2023-02-23T01:38:59;31.60;;;22.17;;
13185;SDS011;6658;53.080;7.428;2023-02-23T01:41:26;32.10;;;22.27;;
13185;SDS011;6658;53.080;7.428;2023-02-23T01:44:01;32.10;;;22.27;;
13185;SDS011;6658;53.080;7.428;2023-02-23T01:46:33;32.63;;;22.43;;
13185;SDS011;6658;53.080;7.428;2023-02-23T01:49:01;30.27;;;21.67;;
13185;SDS011;6658;53.080;7.428;2023-02-23T01:51:32;33.77;;;21.80;;
13185;SDS011;6658;53.080;7.428;2023-02-23T01:54:03;30.17;;;22.03;;
13185;SDS011;6658;53.080;7.428;2023-02-23T01:56:33;35.27;;;22.53;;
13185;SDS011;6658;53.080;7.428;2023-02-23T01:59:07;31.27;;;22.23;;
13185;SDS011;6658;53.080;7.428;2023-02-23T02:01:36;35.67;;;23.47;;
13185;SDS011;6658;53.080;7.428;2023-02-23T02:04:06;30.80;;;22.50;;
13185;SDS011;6658;53.080;7.428;2023-02-23T02:06:33;34.97;;;24.27;;
13185;SDS011;6658;53.080;7.428;2023-02-23T02:09:02;33.53;;;23.67;;
13185;SDS011;6658;53.080;7.428;2023-02-23T02:11:31;39.67;;;25.63;;
13185;SDS011;6658;53.080;7.428;2023-02-23T02:27:23;34.33;;;22.63;;
13185;SDS011;6658;53.080;7.428;2023-02-23T02:32:57;36.20;;;24.23;;
13185;SDS011;6658;53.080;7.428;2023-02-23T02:43:38;35.60;;;24.53;;
13185;SDS011;6658;53.080;7.428;2023-02-23T02:46:34;33.63;;;23.37;;
13185;SDS011;6658;53.080;7.428;2023-02-23T02:49:05;35.43;;;23.87;;
13185;SDS011;6658;53.080;7.428;2023-02-23T02:51:52;34.53;;;23.47;;
13185;SDS011;6658;53.080;7.428;2023-02-23T02:56:55;32.43;;;22.33;;
13185;SDS011;6658;53.080;7.428;2023-02-23T02:59:24;32.03;;;21.83;;
13185;SDS011;6658;53.080;7.428;2023-02-23T03:02:16;31.97;;;22.47;;
13185;SDS011;6658;53.080;7.428;2023-02-23T03:05:22;29.93;;;21.53;;
13185;SDS011;6658;53.080;7.428;2023-02-23T03:11:18;32.70;;;22.40;;
13185;SDS011;6658;53.080;7.428;2023-02-23T03:20:29;32.57;;;20.83;;
13185;SDS011;6658;53.080;7.428;2023-02-23T03:32:18;29.07;;;20.53;;
13185;SDS011;6658;53.080;7.428;2023-02-23T03:38:03;27.07;;;20.63;;
13185;SDS011;6658;53.080;7.428;2023-02-23T03:40:55;28.93;;;21.03;;
13185;SDS011;6658;53.080;7.428;2023-02-23T03:43:43;29.37;;;21.20;;
13185;SDS011;6658;53.080;7.428;2023-02-23T03:46:33;28.10;;;20.63;;
13185;SDS011;6658;53.080;7.428;2023-02-23T03:49:20;30.57;;;20.70;;
13185;SDS011;6658;53.080;7.428;2023-02-23T03:52:12;30.47;;;21.40;;
13185;SDS011;6658;53.080;7.428;2023-02-23T03:55:05;29.43;;;20.77;;
13185;SDS011;6658;53.080;7.428;2023-02-23T03:57:57;29.40;;;21.00;;
13185;SDS011;6658;53.080;7.428;2023-02-23T04:00:45;31.70;;;22.20;;
13185;SDS011;6658;53.080;7.428;2023-02-23T04:03:33;28.67;;;21.53;;
13185;SDS011;6658;53.080;7.428;2023-02-23T04:06:22;28.90;;;21.07;;
13185;SDS011;6658;53.080;7.428;2023-02-23T04:09:10;28.40;;;21.80;;
13185;SDS011;6658;53.080;7.428;2023-02-23T04:17:35;32.40;;;21.57;;
13185;SDS011;6658;53.080;7.428;2023-02-23T04:20:00;31.63;;;21.90;;
13185;SDS011;6658;53.080;7.428;2023-02-23T04:22:27;30.80;;;23.43;;
13185;SDS011;6658;53.080;7.428;2023-02-23T04:24:53;29.67;;;21.63;;
13185;SDS011;6658;53.080;7.428;2023-02-23T04:27:18;32.10;;;22.23;;
13185;SDS011;6658;53.080;7.428;2023-02-23T04:29:44;31.30;;;23.03;;
13185;SDS011;6658;53.080;7.428;2023-02-23T04:32:15;37.10;;;24.77;;
13185;SDS011;6658;53.080;7.428;2023-02-23T04:34:42;35.87;;;23.57;;
13185;SDS011;6658;53.080;7.428;2023-02-23T04:37:08;32.80;;;23.20;;
13185;SDS011;6658;53.080;7.428;2023-02-23T04:39:36;31.97;;;23.33;;
13185;SDS011;6658;53.080;7.428;2023-02-23T04:42:02;36.50;;;23.93;;
13185;SDS011;6658;53.080;7.428;2023-02-23T04:44:28;35.77;;;23.50;;
13185;SDS011;6658;53.080;7.428;2023-02-23T04:46:54;33.00;;;22.47;;
13185;SDS011;6658;53.080;7.428;2023-02-23T04:49:21;34.63;;;23.40;;
13185;SDS011;6658;53.080;7.428;2023-02-23T04:51:47;29.80;;;22.30;;
13185;SDS011;6658;53.080;7.428;2023-02-23T04:54:13;32.17;;;23.50;;
13185;SDS011;6658;53.080;7.428;2023-02-23T04:56:39;35.50;;;24.90;;
13185;SDS011;6658;53.080;7.428;2023-02-23T04:59:04;36.37;;;23.50;;
13185;SDS011;6658;53.080;7.428;2023-02-23T05:01:30;39.63;;;24.83;;
13185;SDS011;6658;53.080;7.428;2023-02-23T05:03:57;39.60;;;25.30;;
13185;SDS011;6658;53.080;7.428;2023-02-23T05:06:24;36.90;;;24.30;;
13185;SDS011;6658;53.080;7.428;2023-02-23T05:08:50;36.50;;;24.10;;
13185;SDS011;6658;53.080;7.428;2023-02-23T05:11:16;39.13;;;25.23;;
13185;SDS011;6658;53.080;7.428;2023-02-23T05:13:41;39.57;;;25.87;;
13185;SDS011;6658;53.080;7.428;2023-02-23T05:16:07;40.07;;;25.90;;
13185;SDS011;6658;53.080;7.428;2023-02-23T05:18:33;39.47;;;25.90;;
13185;SDS011;6658;53.080;7.428;2023-02-23T05:21:05;37.50;;;24.87;;
13185;SDS011;6658;53.080;7.428;2023-02-23T05:23:32;40.03;;;25.40;;
13185;SDS011;6658;53.080;7.428;2023-02-23T05:26:00;38.27;;;24.27;;
13185;SDS011;6658;53.080;7.428;2023-02-23T05:28:36;38.20;;;25.07;;
13185;SDS011;6658;53.080;7.428;2023-02-23T05:31:03;37.50;;;25.70;;
13185;SDS011;6658;53.080;7.428;2023-02-23T05:33:30;43.43;;;26.47;;
13185;SDS011;6658;53.080;7.428;2023-02-23T05:35:56;37.83;;;25.33;;
13185;SDS011;6658;53.080;7.428;2023-02-23T05:38:23;37.53;;;24.97;;
13185;SDS011;6658;53.080;7.428;2023-02-23T05:40:49;37.40;;;24.63;;
13185;SDS011;6658;53.080;7.428;2023-02-23T05:43:14;39.43;;;26.03;;
13185;SDS011;6658;53.080;7.428;2023-02-23T05:45:41;37.93;;;24.93;;
13185;SDS011;6658;53.080;7.428;2023-02-23T05:48:08;37.20;;;24.80;;
13185;SDS011;6658;53.080;7.428;2023-02-23T05:50:34;39.43;;;25.50;;
13185;SDS011;6658;53.080;7.428;2023-02-23T05:53:01;38.40;;;25.30;;
13185;SDS011;6658;53.080;7.428;2023-02-23T05:55:26;35.83;;;25.03;;
13185;SDS011;6658;53.080;7.428;2023-02-23T05:57:52;37.83;;;24.33;;
13185;SDS011;6658;53.080;7.428;2023-02-23T06:00:18;36.30;;;25.27;;
13185;SDS011;6658;53.080;7.428;2023-02-23T06:02:44;37.47;;;25.40;;
13185;SDS011;6658;53.080;7.428;2023-02-23T06:05:10;38.00;;;25.20;;
13185;SDS011;6658;53.080;7.428;2023-02-23T06:07:37;32.17;;;23.87;;
13185;SDS011;6658;53.080;7.428;2023-02-23T06:10:03;36.73;;;23.90;;
13185;SDS011;6658;53.080;7.428;2023-02-23T06:12:30;36.93;;;24.77;;
13185;SDS011;6658;53.080;7.428;2023-02-23T06:14:56;36.40;;;25.37;;
13185;SDS011;6658;53.080;7.428;2023-02-23T06:17:22;36.70;;;24.03;;
13185;SDS011;6658;53.080;7.428;2023-02-23T06:19:48;40.07;;;25.17;;
13185;SDS011;6658;53.080;7.428;2023-02-23T06:22:13;40.70;;;25.23;;
13185;SDS011;6658;53.080;7.428;2023-02-23T06:24:41;41.67;;;24.90;;
13185;SDS011;6658;53.080;7.428;2023-02-23T06:27:08;40.00;;;26.07;;
13185;SDS011;6658;53.080;7.428;2023-02-23T06:29:33;43.33;;;25.10;;
13185;SDS011;6658;53.080;7.428;2023-02-23T06:32:01;42.20;;;25.40;;
13185;SDS011;6658;53.080;7.428;2023-02-23T06:34:27;39.87;;;25.53;;
13185;SDS011;6658;53.080;7.428;2023-02-23T06:36:53;40.13;;;25.23;;
13185;SDS011;6658;53.080;7.428;2023-02-23T06:39:18;38.07;;;24.53;;
13185;SDS011;6658;53.080;7.428;2023-02-23T06:41:44;41.93;;;25.50;;
13185;SDS011;6658;53.080;7.428;2023-02-23T06:44:10;37.23;;;24.37;;
13185;SDS011;6658;53.080;7.428;2023-02-23T06:46:35;41.47;;;24.27;;
13185;SDS011;6658;53.080;7.428;2023-02-23T06:49:02;38.43;;;25.03;;
13185;SDS011;6658;53.080;7.428;2023-02-23T06:51:28;38.90;;;25.10;;
13185;SDS011;6658;53.080;7.428;2023-02-23T06:53:53;39.43;;;24.07;;
13185;SDS011;6658;53.080;7.428;2023-02-23T06:56:19;39.07;;;24.53;;
13185;SDS011;6658;53.080;7.428;2023-02-23T06:58:45;38.20;;;24.03;;
13185;SDS011;6658;53.080;7.428;2023-02-23T07:01:12;39.87;;;24.47;;
13185;SDS011;6658;53.080;7.428;2023-02-23T07:03:38;36.90;;;23.17;;
13185;SDS011;6658;53.080;7.428;2023-02-23T07:06:04;35.93;;;22.37;;
13185;SDS011;6658;53.080;7.428;2023-02-23T07:08:33;36.70;;;22.93;;
13185;SDS011;6658;53.080;7.428;2023-02-23T07:11:06;34.43;;;20.30;;
13185;SDS011;6658;53.080;7.428;2023-02-23T07:13:39;32.40;;;20.43;;
13185;SDS011;6658;53.080;7.428;2023-02-23T07:16:06;38.23;;;22.57;;
13185;SDS011;6658;53.080;7.428;2023-02-23T07:18:32;36.00;;;21.93;;
13185;SDS011;6658;53.080;7.428;2023-02-23T07:20:58;32.40;;;20.27;;
13185;SDS011;6658;53.080;7.428;2023-02-23T07:23:24;32.47;;;20.07;;
13185;SDS011;6658;53.080;7.428;2023-02-23T07:25:50;39.80;;;21.27;;
13185;SDS011;6658;53.080;7.428;2023-02-23T07:28:17;35.60;;;20.70;;
13185;SDS011;6658;53.080;7.428;2023-02-23T07:30:43;35.50;;;20.30;;
13185;SDS011;6658;53.080;7.428;2023-02-23T07:33:09;32.13;;;20.70;;
13185;SDS011;6658;53.080;7.428;2023-02-23T07:35:35;36.37;;;20.57;;
13185;SDS011;6658;53.080;7.428;2023-02-23T07:38:00;34.03;;;20.03;;
13185;SDS011;6658;53.080;7.428;2023-02-23T07:40:26;32.87;;;19.83;;
13185;SDS011;6658;53.080;7.428;2023-02-23T07:42:52;32.23;;;18.67;;
13185;SDS011;6658;53.080;7.428;2023-02-23T07:45:19;34.63;;;19.87;;
13185;SDS011;6658;53.080;7.428;2023-02-23T07:47:45;32.10;;;19.60;;
13185;SDS011;6658;53.080;7.428;2023-02-23T07:50:11;33.67;;;19.37;;
13185;SDS011;6658;53.080;7.428;2023-02-23T07:52:39;31.87;;;20.20;;
13185;SDS011;6658;53.080;7.428;2023-02-23T07:55:06;36.43;;;19.30;;
13185;SDS011;6658;53.080;7.428;2023-02-23T07:57:33;34.40;;;20.17;;
13185;SDS011;6658;53.080;7.428;2023-02-23T07:59:59;32.13;;;20.10;;
13185;SDS011;6658;53.080;7.428;2023-02-23T08:02:25;34.77;;;20.10;;
13185;SDS011;6658;53.080;7.428;2023-02-23T08:04:53;31.90;;;19.77;;
13185;SDS011;6658;53.080;7.428;2023-02-23T08:07:19;35.20;;;20.97;;
13185;SDS011;6658;53.080;7.428;2023-02-23T08:09:46;34.33;;;19.07;;
13185;SDS011;6658;53.080;7.428;2023-02-23T08:12:12;34.37;;;19.97;;
13185;SDS011;6658;53.080;7.428;2023-02-23T08:14:39;34.80;;;20.27;;
13185;SDS011;6658;53.080;7.428;2023-02-23T08:17:05;31.30;;;19.37;;
13185;SDS011;6658;53.080;7.428;2023-02-23T08:19:30;33.37;;;19.97;;
13185;SDS011;6658;53.080;7.428;2023-02-23T08:21:56;32.03;;;19.57;;
13185;SDS011;6658;53.080;7.428;2023-02-23T08:24:23;35.27;;;20.93;;
13185;SDS011;6658;53.080;7.428;2023-02-23T08:26:49;37.70;;;21.00;;
13185;SDS011;6658;53.080;7.428;2023-02-23T08:29:15;33.33;;;20.07;;
13185;SDS011;6658;53.080;7.428;2023-02-23T08:31:41;33.47;;;19.17;;
13185;SDS011;6658;53.080;7.428;2023-02-23T08:34:06;31.10;;;18.60;;
13185;SDS011;6658;53.080;7.428;2023-02-23T08:36:32;32.57;;;19.43;;
13185;SDS011;6658;53.080;7.428;2023-02-23T08:38:57;29.53;;;18.60;;
13185;SDS011;6658;53.080;7.428;2023-02-23T08:41:24;30.17;;;19.00;;
13185;SDS011;6658;53.080;7.428;2023-02-23T08:43:51;30.37;;;17.23;;
13185;SDS011;6658;53.080;7.428;2023-02-23T08:46:17;27.97;;;17.93;;
13185;SDS011;6658;53.080;7.428;2023-02-23T08:48:44;30.93;;;19.10;;
13185;SDS011;6658;53.080;7.428;2023-02-23T08:51:11;29.33;;;18.33;;
13185;SDS011;6658;53.080;7.428;2023-02-23T08:53:38;28.47;;;17.37;;
13185;SDS011;6658;53.080;7.428;2023-02-23T08:56:04;27.97;;;18.13;;
13185;SDS011;6658;53.080;7.428;2023-02-23T08:58:32;29.03;;;17.80;;
13185;SDS011;6658;53.080;7.428;2023-02-23T09:00:58;26.10;;;16.33;;
13185;SDS011;6658;53.080;7.428;2023-02-23T09:03:25;27.37;;;17.90;;
13185;SDS011;6658;53.080;7.428;2023-02-23T09:05:54;26.67;;;16.87;;
13185;SDS011;6658;53.080;7.428;2023-02-23T09:08:20;27.93;;;16.20;;
13185;SDS011;6658;53.080;7.428;2023-02-23T09:10:46;26.27;;;17.00;;
13185;SDS011;6658;53.080;7.428;2023-02-23T09:13:12;26.77;;;17.40;;
13185;SDS011;6658;53.080;7.428;2023-02-23T09:15:39;26.90;;;16.60;;
13185;SDS011;6658;53.080;7.428;2023-02-23T09:18:06;25.13;;;15.90;;
13185;SDS011;6658;53.080;7.428;2023-02-23T09:20:34;25.07;;;16.07;;
13185;SDS011;6658;53.080;7.428;2023-02-23T09:22:59;24.10;;;15.80;;
13185;SDS011;6658;53.080;7.428;2023-02-23T09:25:25;24.40;;;15.97;;
13185;SDS011;6658;53.080;7.428;2023-02-23T09:27:53;24.73;;;16.87;;
13185;SDS011;6658;53.080;7.428;2023-02-23T09:30:23;23.00;;;15.73;;
13185;SDS011;6658;53.080;7.428;2023-02-23T09:32:50;21.70;;;16.00;;
13185;SDS011;6658;53.080;7.428;2023-02-23T09:35:19;23.30;;;15.73;;
13185;SDS011;6658;53.080;7.428;2023-02-23T09:37:46;18.93;;;14.77;;
13185;SDS011;6658;53.080;7.428;2023-02-23T09:40:13;21.33;;;15.40;;
13185;SDS011;6658;53.080;7.428;2023-02-23T09:42:52;17.20;;;12.90;;
13185;SDS011;6658;53.080;7.428;2023-02-23T09:45:48;20.37;;;14.90;;
13185;SDS011;6658;53.080;7.428;2023-02-23T09:48:20;20.00;;;13.37;;
13185;SDS011;6658;53.080;7.428;2023-02-23T09:50:52;19.60;;;13.73;;
13185;SDS011;6658;53.080;7.428;2023-02-23T09:55:55;22.57;;;15.13;;
13185;SDS011;6658;53.080;7.428;2023-02-23T09:58:24;20.57;;;14.37;;
13185;SDS011;6658;53.080;7.428;2023-02-23T10:03:29;17.97;;;13.37;;
13185;SDS011;6658;53.080;7.428;2023-02-23T10:06:02;22.73;;;14.27;;
13185;SDS011;6658;53.080;7.428;2023-02-23T10:14:06;22.70;;;15.47;;
13185;SDS011;6658;53.080;7.428;2023-02-23T10:19:27;20.27;;;13.37;;
13185;SDS011;6658;53.080;7.428;2023-02-23T10:22:03;24.00;;;15.87;;
13185;SDS011;6658;53.080;7.428;2023-02-23T10:24:33;24.83;;;15.80;;
13185;SDS011;6658;53.080;7.428;2023-02-23T10:27:09;25.30;;;15.73;;
13185;SDS011;6658;53.080;7.428;2023-02-23T10:34:54;22.73;;;15.13;;
13185;SDS011;6658;53.080;7.428;2023-02-23T10:37:21;21.47;;;15.03;;
13185;SDS011;6658;53.080;7.428;2023-02-23T10:39:48;22.57;;;15.43;;
13185;SDS011;6658;53.080;7.428;2023-02-23T10:42:19;22.60;;;14.93;;
13185;SDS011;6658;53.080;7.428;2023-02-23T10:44:48;19.57;;;13.40;;
13185;SDS011;6658;53.080;7.428;2023-02-23T10:47:15;22.40;;;13.17;;
13185;SDS011;6658;53.080;7.428;2023-02-23T10:49:46;22.73;;;13.87;;
13185;SDS011;6658;53.080;7.428;2023-02-23T10:52:14;23.33;;;14.90;;
13185;SDS011;6658;53.080;7.428;2023-02-23T10:54:45;20.83;;;14.27;;
13185;SDS011;6658;53.080;7.428;2023-02-23T10:57:34;24.13;;;15.03;;
13185;SDS011;6658;53.080;7.428;2023-02-23T11:02:44;30.43;;;17.40;;
13185;SDS011;6658;53.080;7.428;2023-02-23T11:10:36;33.30;;;19.23;;
13185;SDS011;6658;53.080;7.428;2023-02-23T11:13:02;33.90;;;21.13;;
13185;SDS011;6658;53.080;7.428;2023-02-23T11:15:30;39.47;;;22.90;;
13185;SDS011;6658;53.080;7.428;2023-02-23T11:17:58;37.27;;;21.63;;
13185;SDS011;6658;53.080;7.428;2023-02-23T11:20:32;34.80;;;21.03;;
13185;SDS011;6658;53.080;7.428;2023-02-23T11:25:46;36.97;;;21.90;;
13185;SDS011;6658;53.080;7.428;2023-02-23T11:28:18;42.00;;;22.60;;
13185;SDS011;6658;53.080;7.428;2023-02-23T11:30:54;36.10;;;22.03;;
13185;SDS011;6658;53.080;7.428;2023-02-23T11:33:38;36.90;;;22.10;;
13185;SDS011;6658;53.080;7.428;2023-02-23T11:38:41;38.33;;;22.77;;
13185;SDS011;6658;53.080;7.428;2023-02-23T11:41:19;38.90;;;23.13;;
13185;SDS011;6658;53.080;7.428;2023-02-23T11:43:50;34.07;;;21.33;;
13185;SDS011;6658;53.080;7.428;2023-02-23T11:46:21;38.40;;;23.20;;
13185;SDS011;6658;53.080;7.428;2023-02-23T11:48:59;36.97;;;22.73;;
13185;SDS011;6658;53.080;7.428;2023-02-23T11:51:35;39.20;;;22.20;;
13185;SDS011;6658;53.080;7.428;2023-02-23T11:54:06;36.27;;;21.17;;
13185;SDS011;6658;53.080;7.428;2023-02-23T11:56:41;35.27;;;19.37;;
13185;SDS011;6658;53.080;7.428;2023-02-23T11:59:15;33.97;;;19.17;;
13185;SDS011;6658;53.080;7.428;2023-02-23T12:01:45;31.53;;;19.00;;
13185;SDS011;6658;53.080;7.428;2023-02-23T12:04:26;35.80;;;18.67;;
13185;SDS011;6658;53.080;7.428;2023-02-23T12:09:58;34.53;;;17.37;;
13185;SDS011;6658;53.080;7.428;2023-02-23T12:13:24;28.23;;;15.60;;
13185;SDS011;6658;53.080;7.428;2023-02-23T12:19:03;30.40;;;16.87;;
13185;SDS011;6658;53.080;7.428;2023-02-23T12:24:28;32.50;;;18.03;;
13185;SDS011;6658;53.080;7.428;2023-02-23T12:27:04;32.17;;;17.73;;
13185;SDS011;6658;53.080;7.428;2023-02-23T12:32:46;29.97;;;16.10;;
13185;SDS011;6658;53.080;7.428;2023-02-23T12:35:26;28.53;;;16.17;;
13185;SDS011;6658;53.080;7.428;2023-02-23T12:38:04;27.57;;;16.20;;
13185;SDS011;6658;53.080;7.428;2023-02-23T12:40:43;31.30;;;17.47;;
13185;SDS011;6658;53.080;7.428;2023-02-23T12:43:20;24.50;;;15.33;;
13185;SDS011;6658;53.080;7.428;2023-02-23T12:45:54;28.07;;;15.43;;
13185;SDS011;6658;53.080;7.428;2023-02-23T12:51:32;30.10;;;15.47;;
13185;SDS011;6658;53.080;7.428;2023-02-23T12:54:02;26.47;;;14.53;;
13185;SDS011;6658;53.080;7.428;2023-02-23T13:07:33;25.40;;;13.30;;
13185;SDS011;6658;53.080;7.428;2023-02-23T13:21:27;26.73;;;13.87;;
13185;SDS011;6658;53.080;7.428;2023-02-23T13:23:59;26.77;;;13.73;;
13185;SDS011;6658;53.080;7.428;2023-02-23T13:29:33;22.00;;;12.30;;
13185;SDS011;6658;53.080;7.428;2023-02-23T13:32:03;16.73;;;10.50;;
13185;SDS011;6658;53.080;7.428;2023-02-23T13:34:35;20.83;;;13.00;;
13185;SDS011;6658;53.080;7.428;2023-02-23T13:37:06;18.30;;;10.53;;
13185;SDS011;6658;53.080;7.428;2023-02-23T13:53:38;26.03;;;13.53;;
13185;SDS011;6658;53.080;7.428;2023-02-23T13:56:10;29.47;;;15.33;;
13185;SDS011;6658;53.080;7.428;2023-02-23T13:59:43;30.13;;;15.70;;
13185;SDS011;6658;53.080;7.428;2023-02-23T14:01:50;29.03;;;14.87;;
13185;SDS011;6658;53.080;7.428;2023-02-23T14:04:22;35.80;;;15.70;;
13185;SDS011;6658;53.080;7.428;2023-02-23T14:07:00;28.67;;;14.60;;
13185;SDS011;6658;53.080;7.428;2023-02-23T14:09:43;30.27;;;14.97;;
13185;SDS011;6658;53.080;7.428;2023-02-23T14:12:37;30.80;;;15.03;;
13185;SDS011;6658;53.080;7.428;2023-02-23T14:18:02;28.37;;;13.80;;
13185;SDS011;6658;53.080;7.428;2023-02-23T14:20:41;32.10;;;14.87;;
13185;SDS011;6658;53.080;7.428;2023-02-23T14:31:04;36.90;;;14.80;;
13185;SDS011;6658;53.080;7.428;2023-02-23T14:49:26;10.17;;;3.93;;
13185;SDS011;6658;53.080;7.428;2023-02-23T14:51:56;17.20;;;5.57;;
13185;SDS011;6658;53.080;7.428;2023-02-23T14:54:34;11.93;;;4.50;;
13185;SDS011;6658;53.080;7.428;2023-02-23T14:57:03;19.37;;;5.30;;
13185;SDS011;6658;53.080;7.428;2023-02-23T14:59:37;18.87;;;5.03;;
13185;SDS011;6658;53.080;7.428;2023-02-23T15:02:09;24.37;;;5.57;;
13185;SDS011;6658;53.080;7.428;2023-02-23T15:04:42;18.07;;;6.03;;
13185;SDS011;6658;53.080;7.428;2023-02-23T15:07:13;15.83;;;4.83;;
13185;SDS011;6658;53.080;7.428;2023-02-23T15:09:49;9.93;;;3.73;;
13185;SDS011;6658;53.080;7.428;2023-02-23T15:12:20;15.80;;;4.23;;
13185;SDS011;6658;53.080;7.428;2023-02-23T15:14:55;15.23;;;4.70;;
13185;SDS011;6658;53.080;7.428;2023-02-23T15:17:24;16.73;;;4.43;;
13185;SDS011;6658;53.080;7.428;2023-02-23T15:19:58;15.93;;;4.40;;
13185;SDS011;6658;53.080;7.428;2023-02-23T15:22:28;11.70;;;3.37;;
13185;SDS011;6658;53.080;7.428;2023-02-23T15:25:02;15.87;;;4.37;;
13185;SDS011;6658;53.080;7.428;2023-02-23T15:27:38;13.67;;;4.83;;
13185;SDS011;6658;53.080;7.428;2023-02-23T15:30:44;16.77;;;4.80;;
13185;SDS011;6658;53.080;7.428;2023-02-23T15:33:13;13.97;;;4.40;;
13185;SDS011;6658;53.080;7.428;2023-02-23T15:35:45;17.83;;;4.63;;
13185;SDS011;6658;53.080;7.428;2023-02-23T15:38:19;15.37;;;6.10;;
13185;SDS011;6658;53.080;7.428;2023-02-23T15:40:49;17.33;;;5.37;;
13185;SDS011;6658;53.080;7.428;2023-02-23T15:43:20;15.67;;;4.90;;
13185;SDS011;6658;53.080;7.428;2023-02-23T15:45:50;15.10;;;3.93;;
13185;SDS011;6658;53.080;7.428;2023-02-23T15:48:21;16.27;;;4.77;;
13185;SDS011;6658;53.080;7.428;2023-02-23T15:50:50;17.23;;;5.00;;
13185;SDS011;6658;53.080;7.428;2023-02-23T15:55:44;16.67;;;5.73;;
13185;SDS011;6658;53.080;7.428;2023-02-23T15:58:24;17.67;;;5.20;;
13185;SDS011;6658;53.080;7.428;2023-02-23T16:01:07;16.13;;;3.70;;
13185;SDS011;6658;53.080;7.428;2023-02-23T16:03:34;16.63;;;4.47;;
13185;SDS011;6658;53.080;7.428;2023-02-23T16:06:07;19.03;;;4.23;;
13185;SDS011;6658;53.080;7.428;2023-02-23T16:08:59;18.77;;;4.47;;
13185;SDS011;6658;53.080;7.428;2023-02-23T16:11:43;15.77;;;3.87;;
13185;SDS011;6658;53.080;7.428;2023-02-23T16:14:15;18.03;;;4.10;;
13185;SDS011;6658;53.080;7.428;2023-02-23T16:16:44;10.87;;;3.40;;
13185;SDS011;6658;53.080;7.428;2023-02-23T16:19:14;15.23;;;3.90;;
13185;SDS011;6658;53.080;7.428;2023-02-23T16:21:42;13.97;;;3.67;;
13185;SDS011;6658;53.080;7.428;2023-02-23T16:24:17;10.43;;;3.33;;
13185;SDS011;6658;53.080;7.428;2023-02-23T16:26:49;19.30;;;3.67;;
13185;SDS011;6658;53.080;7.428;2023-02-23T16:29:25;8.17;;;2.60;;
13185;SDS011;6658;53.080;7.428;2023-02-23T16:32:01;12.47;;;3.73;;
13185;SDS011;6658;53.080;7.428;2023-02-23T16:37:13;14.00;;;4.03;;
13185;SDS011;6658;53.080;7.428;2023-02-23T16:39:42;13.67;;;3.40;;
13185;SDS011;6658;53.080;7.428;2023-02-23T16:42:16;10.07;;;3.77;;
13185;SDS011;6658;53.080;7.428;2023-02-23T16:44:45;12.70;;;3.40;;
13185;SDS011;6658;53.080;7.428;2023-02-23T16:47:23;16.27;;;5.50;;
13185;SDS011;6658;53.080;7.428;2023-02-23T16:50:00;9.73;;;2.93;;
13185;SDS011;6658;53.080;7.428;2023-02-23T16:52:36;10.10;;;2.93;;
13185;SDS011;6658;53.080;7.428;2023-02-23T16:55:02;10.87;;;2.63;;
13185;SDS011;6658;53.080;7.428;2023-02-23T16:57:29;13.13;;;3.30;;
13185;SDS011;6658;53.080;7.428;2023-02-23T17:00:03;14.30;;;3.10;;
13185;SDS011;6658;53.080;7.428;2023-02-23T17:02:38;13.63;;;3.07;;
13185;SDS011;6658;53.080;7.428;2023-02-23T17:05:09;13.00;;;3.43;;
13185;SDS011;6658;53.080;7.428;2023-02-23T17:07:37;11.33;;;3.17;;
13185;SDS011;6658;53.080;7.428;2023-02-23T17:10:04;6.57;;;3.43;;
13185;SDS011;6658;53.080;7.428;2023-02-23T17:12:31;11.93;;;3.63;;
13185;SDS011;6658;53.080;7.428;2023-02-23T17:14:57;11.53;;;3.57;;
13185;SDS011;6658;53.080;7.428;2023-02-23T17:17:22;9.97;;;4.00;;
13185;SDS011;6658;53.080;7.428;2023-02-23T17:19:48;8.37;;;2.10;;
13185;SDS011;6658;53.080;7.428;2023-02-23T17:22:14;14.20;;;3.50;;
13185;SDS011;6658;53.080;7.428;2023-02-23T17:24:40;11.70;;;3.90;;
13185;SDS011;6658;53.080;7.428;2023-02-23T17:27:07;9.93;;;2.70;;
13185;SDS011;6658;53.080;7.428;2023-02-23T17:29:32;10.53;;;2.77;;
13185;SDS011;6658;53.080;7.428;2023-02-23T17:31:58;10.87;;;2.97;;
13185;SDS011;6658;53.080;7.428;2023-02-23T17:34:26;11.90;;;2.90;;
13185;SDS011;6658;53.080;7.428;2023-02-23T17:36:53;10.47;;;2.90;;
13185;SDS011;6658;53.080;7.428;2023-02-23T17:39:19;9.77;;;2.70;;
13185;SDS011;6658;53.080;7.428;2023-02-23T17:41:44;8.73;;;2.53;;
13185;SDS011;6658;53.080;7.428;2023-02-23T17:44:10;9.10;;;2.60;;
13185;SDS011;6658;53.080;7.428;2023-02-23T17:46:36;12.67;;;3.00;;
13185;SDS011;6658;53.080;7.428;2023-02-23T17:49:02;10.03;;;2.67;;
13185;SDS011;6658;53.080;7.428;2023-02-23T17:51:28;10.00;;;2.50;;
13185;SDS011;6658;53.080;7.428;2023-02-23T17:53:54;9.43;;;2.70;;